sensor_id;sensor_type;location;lat;lon;timestamp;P1;durP1;ratioP1;P2;durP2;ratioP2
59986;SDS011;46181;51.498;5.392;2024-02-21T00:02:16;17.628;;;6.052;;
59986;SDS011;46181;51.498;5.392;2024-02-21T00:06:46;15.82;;;6.064;;
59986;SDS011;46181;51.498;5.392;2024-02-21T00:11:16;16.644;;;5.535999;;
59986;SDS011;46181;51.498;5.392;2024-02-21T00:15:46;13.976;;;5.248;;
59986;SDS011;46181;51.498;5.392;2024-02-21T00:20:17;15.696;;;5.74;;
59986;SDS011;46181;51.498;5.392;2024-02-21T00:24:46;14.424;;;5.655999;;
59986;SDS011;46181;51.498;5.392;2024-02-21T00:29:16;15.144;;;5.231999;;
59986;SDS011;46181;51.498;5.392;2024-02-21T00:33:46;14.516;;;5.508;;
59986;SDS011;46181;51.498;5.392;2024-02-21T00:38:16;18.156;;;5.496;;
59986;SDS011;46181;51.498;5.392;2024-02-21T00:42:46;16.256;;;5.360001;;
59986;SDS011;46181;51.498;5.392;2024-02-21T00:47:16;17.664;;;5.88;;
59986;SDS011;46181;51.498;5.392;2024-02-21T00:51:46;15.788;;;5.107999;;
59986;SDS011;46181;51.498;5.392;2024-02-21T00:56:16;15.74;;;5.176001;;
59986;SDS011;46181;51.498;5.392;2024-02-21T01:00:46;12.98;;;5.64;;
59986;SDS011;46181;51.498;5.392;2024-02-21T01:05:16;13.612;;;5.008;;
59986;SDS011;46181;51.498;5.392;2024-02-21T01:09:46;13.508;;;5.619999;;
59986;SDS011;46181;51.498;5.392;2024-02-21T01:14:16;12.152;;;4.524;;
59986;SDS011;46181;51.498;5.392;2024-02-21T01:18:46;10.612;;;4.616;;
59986;SDS011;46181;51.498;5.392;2024-02-21T01:23:16;14.952;;;4.920001;;
59986;SDS011;46181;51.498;5.392;2024-02-21T01:27:46;11.492;;;5.404001;;
59986;SDS011;46181;51.498;5.392;2024-02-21T01:32:16;13.052;;;4.984;;
59986;SDS011;46181;51.498;5.392;2024-02-21T01:36:46;14.328;;;5.123999;;
59986;SDS011;46181;51.498;5.392;2024-02-21T01:41:16;14.66;;;4.952;;
59986;SDS011;46181;51.498;5.392;2024-02-21T01:45:47;11.676;;;4.884;;
59986;SDS011;46181;51.498;5.392;2024-02-21T01:50:16;11.336;;;4.432;;
59986;SDS011;46181;51.498;5.392;2024-02-21T01:54:47;11.564;;;4.944;;
59986;SDS011;46181;51.498;5.392;2024-02-21T01:59:16;11.648;;;4.380001;;
59986;SDS011;46181;51.498;5.392;2024-02-21T02:03:46;8.735999;;;4.504;;
59986;SDS011;46181;51.498;5.392;2024-02-21T02:08:17;11.916;;;4.115999;;
59986;SDS011;46181;51.498;5.392;2024-02-21T02:12:46;12.292;;;4.599999;;
59986;SDS011;46181;51.498;5.392;2024-02-21T02:17:16;10.872;;;4.056;;
59986;SDS011;46181;51.498;5.392;2024-02-21T02:21:49;8.356;;;4.092;;
59986;SDS011;46181;51.498;5.392;2024-02-21T02:26:16;13.792;;;4.152;;
59986;SDS011;46181;51.498;5.392;2024-02-21T02:30:47;13.016;;;4.532;;
59986;SDS011;46181;51.498;5.392;2024-02-21T02:35:16;10.348;;;4.18;;
59986;SDS011;46181;51.498;5.392;2024-02-21T02:39:46;11.644;;;4.18;;
59986;SDS011;46181;51.498;5.392;2024-02-21T02:44:16;10.444;;;4.42;;
59986;SDS011;46181;51.498;5.392;2024-02-21T02:48:46;11.728;;;4.348001;;
59986;SDS011;46181;51.498;5.392;2024-02-21T02:53:16;10.956;;;4.192;;
59986;SDS011;46181;51.498;5.392;2024-02-21T02:57:46;10.144;;;4.075999;;
59986;SDS011;46181;51.498;5.392;2024-02-21T03:02:17;10.428;;;4.131999;;
59986;SDS011;46181;51.498;5.392;2024-02-21T03:06:46;11.076;;;4.316;;
59986;SDS011;46181;51.498;5.392;2024-02-21T03:11:16;9.912;;;4.115999;;
59986;SDS011;46181;51.498;5.392;2024-02-21T03:15:46;8.856;;;3.584;;
59986;SDS011;46181;51.498;5.392;2024-02-21T03:20:16;8.924002;;;3.728;;
59986;SDS011;46181;51.498;5.392;2024-02-21T03:24:46;10.7;;;3.664001;;
59986;SDS011;46181;51.498;5.392;2024-02-21T03:29:16;9.636;;;3.316;;
59986;SDS011;46181;51.498;5.392;2024-02-21T03:33:46;9.740001;;;3.636;;
59986;SDS011;46181;51.498;5.392;2024-02-21T03:38:16;8.083999;;;3.484;;
59986;SDS011;46181;51.498;5.392;2024-02-21T03:42:46;9.412;;;4.052;;
59986;SDS011;46181;51.498;5.392;2024-02-21T03:47:16;9.627999;;;3.868;;
59986;SDS011;46181;51.498;5.392;2024-02-21T03:51:46;10.164;;;4.059999;;
59986;SDS011;46181;51.498;5.392;2024-02-21T03:56:16;7.912001;;;3.956;;
59986;SDS011;46181;51.498;5.392;2024-02-21T04:00:46;8.06;;;4;;
59986;SDS011;46181;51.498;5.392;2024-02-21T04:05:19;12.04;;;4.952;;
59986;SDS011;46181;51.498;5.392;2024-02-21T04:09:46;10.444;;;4.135999;;
59986;SDS011;46181;51.498;5.392;2024-02-21T04:14:16;11.056;;;3.824;;
59986;SDS011;46181;51.498;5.392;2024-02-21T04:18:46;10.536;;;4.460001;;
59986;SDS011;46181;51.498;5.392;2024-02-21T04:23:16;9.975999;;;4.308001;;
59986;SDS011;46181;51.498;5.392;2024-02-21T04:27:46;8.879999;;;3.884001;;
59986;SDS011;46181;51.498;5.392;2024-02-21T04:32:16;12.044;;;4.748;;
59986;SDS011;46181;51.498;5.392;2024-02-21T04:36:46;12.22;;;4.587999;;
59986;SDS011;46181;51.498;5.392;2024-02-21T04:41:16;12.26;;;5.360001;;
59986;SDS011;46181;51.498;5.392;2024-02-21T04:45:46;13.48;;;4.856;;
59986;SDS011;46181;51.498;5.392;2024-02-21T04:50:17;15.132;;;5.328001;;
59986;SDS011;46181;51.498;5.392;2024-02-21T04:54:46;14.58;;;5.763999;;
59986;SDS011;46181;51.498;5.392;2024-02-21T04:59:16;12.412;;;5.388;;
59986;SDS011;46181;51.498;5.392;2024-02-21T05:03:46;12.672;;;5.651999;;
59986;SDS011;46181;51.498;5.392;2024-02-21T05:08:16;16.824;;;5.768001;;
59986;SDS011;46181;51.498;5.392;2024-02-21T05:12:46;16.704;;;5.711999;;
59986;SDS011;46181;51.498;5.392;2024-02-21T05:17:17;15.752;;;5.492;;
59986;SDS011;46181;51.498;5.392;2024-02-21T05:21:46;13.976;;;5.532;;
59986;SDS011;46181;51.498;5.392;2024-02-21T05:26:23;14.204;;;5.555999;;
59986;SDS011;46181;51.498;5.392;2024-02-21T05:30:46;12.96;;;5.928;;
59986;SDS011;46181;51.498;5.392;2024-02-21T05:35:16;12.564;;;5.079998;;
59986;SDS011;46181;51.498;5.392;2024-02-21T05:39:47;14.856;;;5.468;;
59986;SDS011;46181;51.498;5.392;2024-02-21T05:44:16;13.544;;;4.963999;;
59986;SDS011;46181;51.498;5.392;2024-02-21T05:48:46;13.624;;;5.336001;;
59986;SDS011;46181;51.498;5.392;2024-02-21T05:53:16;15.588;;;5.412001;;
59986;SDS011;46181;51.498;5.392;2024-02-21T05:57:46;11.256;;;5;;
59986;SDS011;46181;51.498;5.392;2024-02-21T06:02:16;13.908;;;5.216;;
59986;SDS011;46181;51.498;5.392;2024-02-21T06:06:46;13.748;;;4.724;;
59986;SDS011;46181;51.498;5.392;2024-02-21T06:11:16;9.648002;;;4.888;;
59986;SDS011;46181;51.498;5.392;2024-02-21T06:15:46;12.984;;;5.079999;;
59986;SDS011;46181;51.498;5.392;2024-02-21T06:20:17;10.636;;;5.008;;
59986;SDS011;46181;51.498;5.392;2024-02-21T06:24:46;12.5;;;4.615999;;
59986;SDS011;46181;51.498;5.392;2024-02-21T06:29:16;12.764;;;5.075999;;
59986;SDS011;46181;51.498;5.392;2024-02-21T06:33:46;14.924;;;5.743999;;
59986;SDS011;46181;51.498;5.392;2024-02-21T06:38:17;12.712;;;5.051999;;
59986;SDS011;46181;51.498;5.392;2024-02-21T06:42:46;13.42;;;5.547999;;
59986;SDS011;46181;51.498;5.392;2024-02-21T06:47:17;10.948;;;5.016;;
59986;SDS011;46181;51.498;5.392;2024-02-21T06:51:47;11.164;;;5.58;;
59986;SDS011;46181;51.498;5.392;2024-02-21T06:56:17;11.916;;;5.340001;;
59986;SDS011;46181;51.498;5.392;2024-02-21T07:00:47;11.396;;;5.224;;
59986;SDS011;46181;51.498;5.392;2024-02-21T07:05:17;13.04;;;6.26;;
59986;SDS011;46181;51.498;5.392;2024-02-21T07:09:47;16.668;;;5.792001;;
59986;SDS011;46181;51.498;5.392;2024-02-21T07:14:18;14.88;;;5.752001;;
59986;SDS011;46181;51.498;5.392;2024-02-21T07:18:47;14.032;;;6.136;;
59986;SDS011;46181;51.498;5.392;2024-02-21T07:23:17;12.928;;;5.791999;;
59986;SDS011;46181;51.498;5.392;2024-02-21T07:27:47;12.92;;;5.852002;;
59986;SDS011;46181;51.498;5.392;2024-02-21T07:32:17;9.828;;;5.348001;;
59986;SDS011;46181;51.498;5.392;2024-02-21T07:36:47;12.056;;;5.548;;
59986;SDS011;46181;51.498;5.392;2024-02-21T07:41:17;12.468;;;5.948;;
59986;SDS011;46181;51.498;5.392;2024-02-21T07:45:47;13.28;;;5.876001;;
59986;SDS011;46181;51.498;5.392;2024-02-21T07:50:17;13.536;;;6.143999;;
59986;SDS011;46181;51.498;5.392;2024-02-21T07:54:47;14.98;;;6.02;;
59986;SDS011;46181;51.498;5.392;2024-02-21T07:59:17;16.696;;;6.54;;
59986;SDS011;46181;51.498;5.392;2024-02-21T08:03:47;17.596;;;8.783999;;
59986;SDS011;46181;51.498;5.392;2024-02-21T08:08:17;14.308;;;5.416;;
59986;SDS011;46181;51.498;5.392;2024-02-21T08:12:47;10.948;;;5.308001;;
59986;SDS011;46181;51.498;5.392;2024-02-21T08:17:17;10.648;;;5.236001;;
59986;SDS011;46181;51.498;5.392;2024-02-21T08:21:47;12.124;;;5.232001;;
59986;SDS011;46181;51.498;5.392;2024-02-21T08:26:17;12.344;;;5.008;;
59986;SDS011;46181;51.498;5.392;2024-02-21T08:30:47;9.895999;;;4.940001;;
59986;SDS011;46181;51.498;5.392;2024-02-21T08:35:17;9.696;;;4.436;;
59986;SDS011;46181;51.498;5.392;2024-02-21T08:39:47;12.192;;;4.523999;;
59986;SDS011;46181;51.498;5.392;2024-02-21T08:44:17;6.608;;;4.103999;;
59986;SDS011;46181;51.498;5.392;2024-02-21T08:48:47;7.363998;;;4.068;;
59986;SDS011;46181;51.498;5.392;2024-02-21T08:53:17;7.379999;;;4.059999;;
59986;SDS011;46181;51.498;5.392;2024-02-21T08:57:47;10.808;;;4.056;;
59986;SDS011;46181;51.498;5.392;2024-02-21T09:02:17;9.216002;;;4.188;;
59986;SDS011;46181;51.498;5.392;2024-02-21T09:06:47;7.72;;;4.639998;;
59986;SDS011;46181;51.498;5.392;2024-02-21T09:11:17;8.424001;;;4.756001;;
59986;SDS011;46181;51.498;5.392;2024-02-21T09:15:47;9.336001;;;5.584;;
59986;SDS011;46181;51.498;5.392;2024-02-21T09:20:17;10.076;;;5.936002;;
59986;SDS011;46181;51.498;5.392;2024-02-21T09:24:47;11.08;;;6.595999;;
59986;SDS011;46181;51.498;5.392;2024-02-21T09:29:17;10.732;;;6.268001;;
59986;SDS011;46181;51.498;5.392;2024-02-21T09:33:47;10.388;;;6.488001;;
59986;SDS011;46181;51.498;5.392;2024-02-21T09:38:17;9.984001;;;6.360001;;
59986;SDS011;46181;51.498;5.392;2024-02-21T09:42:47;11.976;;;6.592;;
59986;SDS011;46181;51.498;5.392;2024-02-21T09:47:17;11.804;;;6.572001;;
59986;SDS011;46181;51.498;5.392;2024-02-21T09:51:47;10.624;;;6.219999;;
59986;SDS011;46181;51.498;5.392;2024-02-21T09:56:17;11.86;;;6.171999;;
59986;SDS011;46181;51.498;5.392;2024-02-21T10:00:47;11.964;;;5.603999;;
59986;SDS011;46181;51.498;5.392;2024-02-21T10:05:17;11.948;;;5.840001;;
59986;SDS011;46181;51.498;5.392;2024-02-21T10:09:47;10.58;;;5.380001;;
59986;SDS011;46181;51.498;5.392;2024-02-21T10:14:17;8.311999;;;5.496;;
59986;SDS011;46181;51.498;5.392;2024-02-21T10:18:47;10.412;;;4.563999;;
59986;SDS011;46181;51.498;5.392;2024-02-21T10:23:17;8.203999;;;3.752001;;
59986;SDS011;46181;51.498;5.392;2024-02-21T10:27:47;9.124;;;4.127999;;
59986;SDS011;46181;51.498;5.392;2024-02-21T10:32:17;7.952001;;;3.788;;
59986;SDS011;46181;51.498;5.392;2024-02-21T10:36:47;8.576;;;3.615999;;
59986;SDS011;46181;51.498;5.392;2024-02-21T10:41:17;8.452;;;3.9;;
59986;SDS011;46181;51.498;5.392;2024-02-21T10:45:47;8.312;;;3.436;;
59986;SDS011;46181;51.498;5.392;2024-02-21T10:50:17;7.659999;;;3.392001;;
59986;SDS011;46181;51.498;5.392;2024-02-21T10:54:48;10.568;;;4.083999;;
59986;SDS011;46181;51.498;5.392;2024-02-21T10:59:17;8.252;;;3.52;;
59986;SDS011;46181;51.498;5.392;2024-02-21T11:03:47;8.32;;;3.692;;
59986;SDS011;46181;51.498;5.392;2024-02-21T11:08:17;6.516;;;3.655999;;
59986;SDS011;46181;51.498;5.392;2024-02-21T11:12:47;7.128;;;3.66;;
59986;SDS011;46181;51.498;5.392;2024-02-21T11:17:20;7.423998;;;3.344;;
59986;SDS011;46181;51.498;5.392;2024-02-21T11:21:47;6.908;;;3.3;;
59986;SDS011;46181;51.498;5.392;2024-02-21T11:26:21;6.331999;;;2.931999;;
59986;SDS011;46181;51.498;5.392;2024-02-21T11:30:47;10.064;;;3.452;;
59986;SDS011;46181;51.498;5.392;2024-02-21T11:35:22;10.524;;;3.768;;
59986;SDS011;46181;51.498;5.392;2024-02-21T11:39:47;7.268001;;;3.388001;;
59986;SDS011;46181;51.498;5.392;2024-02-21T11:44:17;9.639998;;;3.384001;;
59986;SDS011;46181;51.498;5.392;2024-02-21T11:48:47;8.232;;;2.952;;
59986;SDS011;46181;51.498;5.392;2024-02-21T11:53:17;9.008001;;;3.075999;;
59986;SDS011;46181;51.498;5.392;2024-02-21T11:57:47;7.512002;;;3.124;;
59986;SDS011;46181;51.498;5.392;2024-02-21T12:02:17;8.616001;;;3.216;;
59986;SDS011;46181;51.498;5.392;2024-02-21T12:06:47;7.256001;;;2.984;;
59986;SDS011;46181;51.498;5.392;2024-02-21T12:11:21;8.928;;;3.216001;;
59986;SDS011;46181;51.498;5.392;2024-02-21T12:15:47;8.136001;;;3.316;;
59986;SDS011;46181;51.498;5.392;2024-02-21T12:20:17;8.592001;;;3.451999;;
59986;SDS011;46181;51.498;5.392;2024-02-21T12:24:47;7.987999;;;3.164001;;
59986;SDS011;46181;51.498;5.392;2024-02-21T12:29:17;8.032001;;;3.032;;
59986;SDS011;46181;51.498;5.392;2024-02-21T12:33:47;8.383999;;;3.284;;
59986;SDS011;46181;51.498;5.392;2024-02-21T12:38:17;6.720001;;;3.54;;
59986;SDS011;46181;51.498;5.392;2024-02-21T12:42:47;8.308001;;;3.432;;
59986;SDS011;46181;51.498;5.392;2024-02-21T12:47:17;6.54;;;3.172;;
59986;SDS011;46181;51.498;5.392;2024-02-21T12:51:47;8.664;;;3.127999;;
59986;SDS011;46181;51.498;5.392;2024-02-21T12:56:17;7.680001;;;2.864;;
59986;SDS011;46181;51.498;5.392;2024-02-21T13:00:47;8.403999;;;2.976;;
59986;SDS011;46181;51.498;5.392;2024-02-21T13:05:17;7.400001;;;2.708;;
59986;SDS011;46181;51.498;5.392;2024-02-21T13:09:47;7.771998;;;2.688;;
59986;SDS011;46181;51.498;5.392;2024-02-21T13:14:17;8.451999;;;2.62;;
59986;SDS011;46181;51.498;5.392;2024-02-21T13:18:47;5.488001;;;2.276;;
59986;SDS011;46181;51.498;5.392;2024-02-21T13:23:17;7.148001;;;2.692;;
59986;SDS011;46181;51.498;5.392;2024-02-21T13:27:47;6.236;;;2.472;;
59986;SDS011;46181;51.498;5.392;2024-02-21T13:32:17;6.024;;;2.028;;
59986;SDS011;46181;51.498;5.392;2024-02-21T13:36:47;7.64;;;2.268;;
59986;SDS011;46181;51.498;5.392;2024-02-21T13:41:17;5.536;;;2.12;;
59986;SDS011;46181;51.498;5.392;2024-02-21T13:45:55;4.380001;;;1.968;;
59986;SDS011;46181;51.498;5.392;2024-02-21T13:50:17;4.92;;;1.94;;
59986;SDS011;46181;51.498;5.392;2024-02-21T13:54:47;5.188;;;2.204;;
59986;SDS011;46181;51.498;5.392;2024-02-21T13:59:17;5.052;;;2.328;;
59986;SDS011;46181;51.498;5.392;2024-02-21T14:03:47;6.936;;;2.26;;
59986;SDS011;46181;51.498;5.392;2024-02-21T14:08:17;6.084001;;;2.408001;;
59986;SDS011;46181;51.498;5.392;2024-02-21T14:12:47;7.664001;;;2.432;;
59986;SDS011;46181;51.498;5.392;2024-02-21T14:17:17;8.095999;;;2.344;;
59986;SDS011;46181;51.498;5.392;2024-02-21T14:21:47;5.992;;;2.056;;
59986;SDS011;46181;51.498;5.392;2024-02-21T14:26:17;8.172;;;2.256;;
59986;SDS011;46181;51.498;5.392;2024-02-21T14:30:47;6.387999;;;2.604;;
59986;SDS011;46181;51.498;5.392;2024-02-21T14:35:17;5.959999;;;2.376;;
59986;SDS011;46181;51.498;5.392;2024-02-21T14:39:47;5.431999;;;2.536;;
59986;SDS011;46181;51.498;5.392;2024-02-21T14:44:17;6.328001;;;2.424;;
59986;SDS011;46181;51.498;5.392;2024-02-21T14:48:47;8.023999;;;2.832;;
59986;SDS011;46181;51.498;5.392;2024-02-21T14:53:17;5.808001;;;2.232;;
59986;SDS011;46181;51.498;5.392;2024-02-21T14:57:47;5.164;;;2.388;;
59986;SDS011;46181;51.498;5.392;2024-02-21T15:02:17;7.123999;;;2.539999;;
59986;SDS011;46181;51.498;5.392;2024-02-21T15:06:47;8.308;;;2.852;;
59986;SDS011;46181;51.498;5.392;2024-02-21T15:11:17;6.404;;;2.732;;
59986;SDS011;46181;51.498;5.392;2024-02-21T15:15:47;6.016;;;2.644;;
59986;SDS011;46181;51.498;5.392;2024-02-21T15:20:17;7.864;;;2.96;;
59986;SDS011;46181;51.498;5.392;2024-02-21T15:24:47;6.163999;;;2.792;;
59986;SDS011;46181;51.498;5.392;2024-02-21T15:29:17;6.164001;;;2.904001;;
59986;SDS011;46181;51.498;5.392;2024-02-21T15:33:47;7.5;;;2.772;;
59986;SDS011;46181;51.498;5.392;2024-02-21T15:38:17;5.388;;;2.58;;
59986;SDS011;46181;51.498;5.392;2024-02-21T15:42:47;7.248001;;;3.036;;
59986;SDS011;46181;51.498;5.392;2024-02-21T15:47:17;6.572;;;2.884001;;
59986;SDS011;46181;51.498;5.392;2024-02-21T15:51:47;5.96;;;2.992;;
59986;SDS011;46181;51.498;5.392;2024-02-21T15:56:17;9.288;;;3.075999;;
59986;SDS011;46181;51.498;5.392;2024-02-21T16:00:47;6.336;;;3.22;;
59986;SDS011;46181;51.498;5.392;2024-02-21T16:05:17;7.227999;;;3.615999;;
59986;SDS011;46181;51.498;5.392;2024-02-21T16:09:47;7.824001;;;2.784;;
59986;SDS011;46181;51.498;5.392;2024-02-21T16:14:17;6.660001;;;2.876;;
59986;SDS011;46181;51.498;5.392;2024-02-21T16:18:47;6.072;;;2.98;;
59986;SDS011;46181;51.498;5.392;2024-02-21T16:23:17;6.124;;;2.824;;
59986;SDS011;46181;51.498;5.392;2024-02-21T16:27:47;7.344;;;2.8;;
59986;SDS011;46181;51.498;5.392;2024-02-21T16:32:17;6.692001;;;2.96;;
59986;SDS011;46181;51.498;5.392;2024-02-21T16:36:47;6.164;;;2.7;;
59986;SDS011;46181;51.498;5.392;2024-02-21T16:41:17;4.916;;;2.716;;
59986;SDS011;46181;51.498;5.392;2024-02-21T16:45:47;6.656;;;3.099999;;
59986;SDS011;46181;51.498;5.392;2024-02-21T16:50:17;6.88;;;2.956;;
59986;SDS011;46181;51.498;5.392;2024-02-21T16:54:47;7.072;;;2.936;;
59986;SDS011;46181;51.498;5.392;2024-02-21T16:59:17;7.96;;;3.176001;;
59986;SDS011;46181;51.498;5.392;2024-02-21T17:03:47;8.672;;;3.42;;
59986;SDS011;46181;51.498;5.392;2024-02-21T17:08:17;6.456;;;2.860001;;
59986;SDS011;46181;51.498;5.392;2024-02-21T17:12:47;10.108;;;3.655999;;
59986;SDS011;46181;51.498;5.392;2024-02-21T17:17:17;7.664;;;3.348;;
59986;SDS011;46181;51.498;5.392;2024-02-21T17:21:47;9.224;;;3.492;;
59986;SDS011;46181;51.498;5.392;2024-02-21T17:26:17;7.732001;;;3.544;;
59986;SDS011;46181;51.498;5.392;2024-02-21T17:30:47;8.456001;;;3.58;;
59986;SDS011;46181;51.498;5.392;2024-02-21T17:35:17;7.688001;;;3.64;;
59986;SDS011;46181;51.498;5.392;2024-02-21T17:39:47;8.680002;;;3.632;;
59986;SDS011;46181;51.498;5.392;2024-02-21T17:44:17;9.58;;;4.316;;
59986;SDS011;46181;51.498;5.392;2024-02-21T17:48:47;6.487999;;;3.516;;
59986;SDS011;46181;51.498;5.392;2024-02-21T17:53:17;6.936;;;4.023999;;
59986;SDS011;46181;51.498;5.392;2024-02-21T17:57:47;9.16;;;3.888001;;
59986;SDS011;46181;51.498;5.392;2024-02-21T18:02:17;8.304;;;3.752;;
59986;SDS011;46181;51.498;5.392;2024-02-21T18:06:47;9.896;;;4.012;;
59986;SDS011;46181;51.498;5.392;2024-02-21T18:11:17;7.872;;;4.248;;
59986;SDS011;46181;51.498;5.392;2024-02-21T18:15:47;8.436002;;;4.116;;
59986;SDS011;46181;51.498;5.392;2024-02-21T18:20:17;8.012;;;4.284;;
59986;SDS011;46181;51.498;5.392;2024-02-21T18:24:47;6.928;;;4.212;;
59986;SDS011;46181;51.498;5.392;2024-02-21T18:29:17;11.044;;;4.504001;;
59986;SDS011;46181;51.498;5.392;2024-02-21T18:33:47;7.547999;;;4.148;;
59986;SDS011;46181;51.498;5.392;2024-02-21T18:38:17;8.568001;;;4.563999;;
59986;SDS011;46181;51.498;5.392;2024-02-21T18:42:47;13.052;;;4.928;;
59986;SDS011;46181;51.498;5.392;2024-02-21T18:47:17;7.535998;;;4.928;;
59986;SDS011;46181;51.498;5.392;2024-02-21T18:51:47;8.228;;;4.7;;
59986;SDS011;46181;51.498;5.392;2024-02-21T18:56:17;7.127999;;;4.5;;
59986;SDS011;46181;51.498;5.392;2024-02-21T19:00:47;7.348;;;4.548;;
59986;SDS011;46181;51.498;5.392;2024-02-21T19:05:17;9.104;;;4.444;;
59986;SDS011;46181;51.498;5.392;2024-02-21T19:09:47;7.744001;;;4.320001;;
59986;SDS011;46181;51.498;5.392;2024-02-21T19:14:17;7.407999;;;4.623999;;
59986;SDS011;46181;51.498;5.392;2024-02-21T19:18:47;7.532;;;4.448;;
59986;SDS011;46181;51.498;5.392;2024-02-21T19:23:17;6.927999;;;4.567999;;
59986;SDS011;46181;51.498;5.392;2024-02-21T19:27:47;7.852;;;4.444;;
59986;SDS011;46181;51.498;5.392;2024-02-21T19:32:17;9.084002;;;4.812001;;
59986;SDS011;46181;51.498;5.392;2024-02-21T19:36:47;7.388001;;;4.495999;;
59986;SDS011;46181;51.498;5.392;2024-02-21T19:41:18;6.195999;;;4.272;;
59986;SDS011;46181;51.498;5.392;2024-02-21T19:45:47;7.668001;;;4.412;;
59986;SDS011;46181;51.498;5.392;2024-02-21T19:50:17;8.623999;;;4.716;;
59986;SDS011;46181;51.498;5.392;2024-02-21T19:54:47;7.275999;;;4.496;;
59986;SDS011;46181;51.498;5.392;2024-02-21T19:59:17;6.343998;;;4.08;;
59986;SDS011;46181;51.498;5.392;2024-02-21T20:03:47;6.384;;;4.46;;
59986;SDS011;46181;51.498;5.392;2024-02-21T20:08:17;6.039999;;;4.008;;
59986;SDS011;46181;51.498;5.392;2024-02-21T20:12:47;7.280001;;;4.472;;
59986;SDS011;46181;51.498;5.392;2024-02-21T20:17:17;5.527999;;;3.868;;
59986;SDS011;46181;51.498;5.392;2024-02-21T20:21:47;6.688001;;;3.764;;
59986;SDS011;46181;51.498;5.392;2024-02-21T20:26:17;5.603998;;;3.784;;
59986;SDS011;46181;51.498;5.392;2024-02-21T20:30:47;5.472;;;3.4;;
59986;SDS011;46181;51.498;5.392;2024-02-21T20:35:17;7.112;;;3.804001;;
59986;SDS011;46181;51.498;5.392;2024-02-21T20:39:47;5.264001;;;3.640001;;
59986;SDS011;46181;51.498;5.392;2024-02-21T20:44:17;5.911999;;;3.364;;
59986;SDS011;46181;51.498;5.392;2024-02-21T20:48:47;4.708001;;;3.108;;
59986;SDS011;46181;51.498;5.392;2024-02-21T20:53:17;4.992;;;3.476;;
59986;SDS011;46181;51.498;5.392;2024-02-21T20:57:47;5.616001;;;3.128;;
59986;SDS011;46181;51.498;5.392;2024-02-21T21:02:17;4.504;;;3.128;;
59986;SDS011;46181;51.498;5.392;2024-02-21T21:06:47;4.296;;;3.055999;;
59986;SDS011;46181;51.498;5.392;2024-02-21T21:11:17;5.404;;;2.904;;
59986;SDS011;46181;51.498;5.392;2024-02-21T21:15:47;5.364001;;;2.912;;
59986;SDS011;46181;51.498;5.392;2024-02-21T21:20:18;4.452001;;;2.824;;
59986;SDS011;46181;51.498;5.392;2024-02-21T21:24:47;4.952001;;;2.752;;
59986;SDS011;46181;51.498;5.392;2024-02-21T21:29:17;3.772;;;2.376;;
59986;SDS011;46181;51.498;5.392;2024-02-21T21:33:47;5.879998;;;2.44;;
59986;SDS011;46181;51.498;5.392;2024-02-21T21:38:17;3.296;;;2.272;;
59986;SDS011;46181;51.498;5.392;2024-02-21T21:42:47;4.608;;;2.188;;
59986;SDS011;46181;51.498;5.392;2024-02-21T21:47:17;4.536;;;1.98;;
59986;SDS011;46181;51.498;5.392;2024-02-21T21:51:47;5.220001;;;2.308;;
59986;SDS011;46181;51.498;5.392;2024-02-21T21:56:17;6.172;;;2.2;;
59986;SDS011;46181;51.498;5.392;2024-02-21T22:00:47;4.076;;;1.992;;
59986;SDS011;46181;51.498;5.392;2024-02-21T22:05:17;4.084;;;2.124;;
59986;SDS011;46181;51.498;5.392;2024-02-21T22:09:47;3.62;;;2.016;;
59986;SDS011;46181;51.498;5.392;2024-02-21T22:14:17;3.888;;;1.876;;
59986;SDS011;46181;51.498;5.392;2024-02-21T22:18:47;3.264;;;1.904;;
59986;SDS011;46181;51.498;5.392;2024-02-21T22:23:17;3.068;;;1.78;;
59986;SDS011;46181;51.498;5.392;2024-02-21T22:27:47;3.632;;;1.912;;
59986;SDS011;46181;51.498;5.392;2024-02-21T22:32:17;3.504001;;;1.724;;
59986;SDS011;46181;51.498;5.392;2024-02-21T22:36:47;2.908001;;;2.068;;
59986;SDS011;46181;51.498;5.392;2024-02-21T22:41:17;5.18;;;2.064;;
59986;SDS011;46181;51.498;5.392;2024-02-21T22:45:47;3.651999;;;1.856;;
59986;SDS011;46181;51.498;5.392;2024-02-21T22:50:17;3.512;;;2.06;;
59986;SDS011;46181;51.498;5.392;2024-02-21T22:54:47;3.843999;;;2.048;;
59986;SDS011;46181;51.498;5.392;2024-02-21T22:59:17;3.764;;;2;;
59986;SDS011;46181;51.498;5.392;2024-02-21T23:03:47;4.779999;;;2.008;;
59986;SDS011;46181;51.498;5.392;2024-02-21T23:08:17;29.916;;;3.076;;
59986;SDS011;46181;51.498;5.392;2024-02-21T23:12:47;4.440001;;;2.14;;
59986;SDS011;46181;51.498;5.392;2024-02-21T23:17:17;4.08;;;2.008;;
59986;SDS011;46181;51.498;5.392;2024-02-21T23:21:47;3.648;;;2.076;;
59986;SDS011;46181;51.498;5.392;2024-02-21T23:26:17;4.956001;;;2.14;;
59986;SDS011;46181;51.498;5.392;2024-02-21T23:30:47;4.38;;;2.024;;
59986;SDS011;46181;51.498;5.392;2024-02-21T23:35:17;3.492;;;2.04;;
59986;SDS011;46181;51.498;5.392;2024-02-21T23:39:47;3.5;;;2.312;;
59986;SDS011;46181;51.498;5.392;2024-02-21T23:44:17;5.736;;;2.543999;;
59986;SDS011;46181;51.498;5.392;2024-02-21T23:48:47;5.712;;;2.184;;
59986;SDS011;46181;51.498;5.392;2024-02-21T23:53:17;3.48;;;2.272;;
59986;SDS011;46181;51.498;5.392;2024-02-21T23:57:47;3.988;;;2.516;;
